sensor_id;sensor_type;location;lat;lon;timestamp;pressure;altitude;pressure_sealevel;temperature;humidity
74431;BME280;62863;52.062;23.764;2023-12-22T00:01:56;985.8;;;5.1;82.1
74431;BME280;62863;52.062;23.764;2023-12-22T00:07:04;985.9;;;5.1;82
74431;BME280;62863;52.062;23.764;2023-12-22T00:11:50;986;;;5.1;82.1
74431;BME280;62863;52.062;23.764;2023-12-22T00:17:12;986.1;;;5.2;82.3
74431;BME280;62863;52.062;23.764;2023-12-22T00:22:04;986.1;;;5.3;82.7
74431;BME280;62863;52.062;23.764;2023-12-22T00:26:40;986.1;;;5.3;82.6
74431;BME280;62863;52.062;23.764;2023-12-22T00:32:16;986.2;;;5.4;83
74431;BME280;62863;52.062;23.764;2023-12-22T00:36:34;986.1;;;5.4;83.2
74431;BME280;62863;52.062;23.764;2023-12-22T00:41:34;986.2;;;5.5;82.9
74431;BME280;62863;52.062;23.764;2023-12-22T00:46:54;986.3;;;5.5;83.1
74431;BME280;62863;52.062;23.764;2023-12-22T00:51:54;986.4;;;5.5;82.7
74431;BME280;62863;52.062;23.764;2023-12-22T00:56:56;986.4;;;5.5;82.6
74431;BME280;62863;52.062;23.764;2023-12-22T01:01:56;986.5;;;5.5;82.5
74431;BME280;62863;52.062;23.764;2023-12-22T01:07:14;986.6;;;5.6;82.4
74431;BME280;62863;52.062;23.764;2023-12-22T01:11:58;986.7;;;5.6;82.2
74431;BME280;62863;52.062;23.764;2023-12-22T01:16:50;986.7;;;5.4;82.4
74431;BME280;62863;52.062;23.764;2023-12-22T01:22:14;986.7;;;5.3;82.6
74431;BME280;62863;52.062;23.764;2023-12-22T01:26:48;986.7;;;5.2;82.7
74431;BME280;62863;52.062;23.764;2023-12-22T01:31:34;986.7;;;5.2;82.9
74431;BME280;62863;52.062;23.764;2023-12-22T01:36:34;986.7;;;5.3;82.8
74431;BME280;62863;52.062;23.764;2023-12-22T01:41:58;986.8;;;5.4;82.7
74431;BME280;62863;52.062;23.764;2023-12-22T01:46:50;986.8;;;5.4;82.3
74431;BME280;62863;52.062;23.764;2023-12-22T01:51:54;986.9;;;5.5;81.6
74431;BME280;62863;52.062;23.764;2023-12-22T01:57:12;987;;;5.5;81
74431;BME280;62863;52.062;23.764;2023-12-22T02:02:04;987;;;5.5;80.2
74431;BME280;62863;52.062;23.764;2023-12-22T02:06:48;987;;;5.5;79.4
74431;BME280;62863;52.062;23.764;2023-12-22T02:12:14;987.1;;;5.4;78.6
74431;BME280;62863;52.062;23.764;2023-12-22T02:16:36;987.1;;;5.3;78.4
74431;BME280;62863;52.062;23.764;2023-12-22T02:21:59;987.1;;;5.2;78.3
74431;BME280;62863;52.062;23.764;2023-12-22T02:26:35;987.1;;;5.2;78.2
74431;BME280;62863;52.062;23.764;2023-12-22T02:31:44;987.1;;;5.1;78.4
74431;BME280;62863;52.062;23.764;2023-12-22T02:37:07;987.1;;;5;78.2
74431;BME280;62863;52.062;23.764;2023-12-22T02:41:56;987.2;;;4.9;78
74431;BME280;62863;52.062;23.764;2023-12-22T02:47:14;987.2;;;4.7;77.9
74431;BME280;62863;52.062;23.764;2023-12-22T02:52:04;987.3;;;4.6;77.7
74431;BME280;62863;52.062;23.764;2023-12-22T02:57:00;987.3;;;4.4;77.9
74431;BME280;62863;52.062;23.764;2023-12-22T03:02:02;987.3;;;4.2;78.2
74431;BME280;62863;52.062;23.764;2023-12-22T03:06:34;987.2;;;4.1;78.7
74431;BME280;62863;52.062;23.764;2023-12-22T03:11:50;987.2;;;4;79
74431;BME280;62863;52.062;23.764;2023-12-22T03:16:40;987.3;;;4;79.2
74431;BME280;62863;52.062;23.764;2023-12-22T03:21:52;987.3;;;4;79.3
74431;BME280;62863;52.062;23.764;2023-12-22T03:27:04;987.3;;;3.9;79.6
74431;BME280;62863;52.062;23.764;2023-12-22T03:31:48;987.4;;;3.9;79.7
74431;BME280;62863;52.062;23.764;2023-12-22T03:37:14;987.4;;;3.8;79.8
74431;BME280;62863;52.062;23.764;2023-12-22T03:41:58;987.5;;;3.6;79.9
74431;BME280;62863;52.062;23.764;2023-12-22T03:46:34;987.5;;;3.6;79.9
74431;BME280;62863;52.062;23.764;2023-12-22T03:51:52;987.4;;;3.6;79.7
74431;BME280;62863;52.062;23.764;2023-12-22T03:56:34;987.4;;;3.7;79.4
74431;BME280;62863;52.062;23.764;2023-12-22T04:01:51;987.5;;;3.7;79.2
74431;BME280;62863;52.062;23.764;2023-12-22T04:06:58;987.5;;;3.8;79
74431;BME280;62863;52.062;23.764;2023-12-22T04:11:48;987.6;;;3.8;78.7
74431;BME280;62863;52.062;23.764;2023-12-22T04:17:14;987.7;;;3.8;78.6
74431;BME280;62863;52.062;23.764;2023-12-22T04:21:44;987.7;;;3.8;78.6
74431;BME280;62863;52.062;23.764;2023-12-22T04:26:42;987.7;;;3.8;78.4
74431;BME280;62863;52.062;23.764;2023-12-22T04:32:06;987.8;;;3.8;78.3
74431;BME280;62863;52.062;23.764;2023-12-22T04:37:04;987.8;;;3.8;78
74431;BME280;62863;52.062;23.764;2023-12-22T04:42:16;987.8;;;3.9;77.8
74431;BME280;62863;52.062;23.764;2023-12-22T04:46:52;987.7;;;3.9;77.6
74431;BME280;62863;52.062;23.764;2023-12-22T04:51:34;987.6;;;3.9;77.3
74431;BME280;62863;52.062;23.764;2023-12-22T04:57:00;987.5;;;4;77
74431;BME280;62863;52.062;23.764;2023-12-22T05:01:50;987.5;;;4;76.8
74431;BME280;62863;52.062;23.764;2023-12-22T05:07:04;987.4;;;4.1;76.6
74431;BME280;62863;52.062;23.764;2023-12-22T05:12:08;987.5;;;4.1;76.6
74431;BME280;62863;52.062;23.764;2023-12-22T05:16:50;987.5;;;4.2;76.6
74431;BME280;62863;52.062;23.764;2023-12-22T05:22:18;987.4;;;4.2;76.4
74431;BME280;62863;52.062;23.764;2023-12-22T05:27:04;987.4;;;4.2;76.4
74431;BME280;62863;52.062;23.764;2023-12-22T05:32:16;987.4;;;4.3;75.7
74431;BME280;62863;52.062;23.764;2023-12-22T05:36:50;987.3;;;4.3;75.3
74431;BME280;62863;52.062;23.764;2023-12-22T05:41:42;987.4;;;4.3;75.3
74431;BME280;62863;52.062;23.764;2023-12-22T05:46:35;987.4;;;4.3;75
74431;BME280;62863;52.062;23.764;2023-12-22T05:51:50;987.5;;;4.3;75.1
74431;BME280;62863;52.062;23.764;2023-12-22T05:57:18;987.5;;;4.3;74.8
74431;BME280;62863;52.062;23.764;2023-12-22T06:01:58;987.5;;;4.3;74.2
74431;BME280;62863;52.062;23.764;2023-12-22T06:06:42;987.6;;;4.4;73.7
74431;BME280;62863;52.062;23.764;2023-12-22T06:11:58;987.6;;;4.4;74.1
74431;BME280;62863;52.062;23.764;2023-12-22T06:16:56;987.6;;;4.3;73.9
74431;BME280;62863;52.062;23.764;2023-12-22T06:22:18;987.6;;;4.3;73.9
74431;BME280;62863;52.062;23.764;2023-12-22T06:26:42;987.7;;;4.2;73.7
74431;BME280;62863;52.062;23.764;2023-12-22T06:31:34;987.8;;;4.2;73.7
74431;BME280;62863;52.062;23.764;2023-12-22T06:37:02;987.9;;;4.2;73.6
74431;BME280;62863;52.062;23.764;2023-12-22T06:41:34;987.9;;;4.2;73.7
74431;BME280;62863;52.062;23.764;2023-12-22T06:47:18;988;;;4.2;73.6
74431;BME280;62863;52.062;23.764;2023-12-22T06:51:54;988.1;;;4.2;73.5
74431;BME280;62863;52.062;23.764;2023-12-22T06:56:52;988.1;;;4.3;73.4
74431;BME280;62863;52.062;23.764;2023-12-22T07:02:02;988.2;;;4.3;72.8
74431;BME280;62863;52.062;23.764;2023-12-22T07:07:04;988.3;;;4.4;72.2
74431;BME280;62863;52.062;23.764;2023-12-22T07:12:16;988.4;;;4.4;72.1
74431;BME280;62863;52.062;23.764;2023-12-22T07:16:42;988.3;;;4.5;71.8
74431;BME280;62863;52.062;23.764;2023-12-22T07:22:16;988.4;;;4.5;71.2
74431;BME280;62863;52.062;23.764;2023-12-22T07:26:44;988.5;;;4.5;71.5
74431;BME280;62863;52.062;23.764;2023-12-22T07:31:34;988.6;;;4.6;71.3
74431;BME280;62863;52.062;23.764;2023-12-22T07:37:18;988.6;;;4.6;71.1
74431;BME280;62863;52.062;23.764;2023-12-22T07:42:06;988.6;;;4.7;71.3
74431;BME280;62863;52.062;23.764;2023-12-22T07:46:34;988.7;;;4.8;71
74431;BME280;62863;52.062;23.764;2023-12-22T07:52:08;988.8;;;4.8;70.8
74431;BME280;62863;52.062;23.764;2023-12-22T07:57:02;988.7;;;4.9;70.5
74431;BME280;62863;52.062;23.764;2023-12-22T08:02:18;988.8;;;4.9;70.5
74431;BME280;62863;52.062;23.764;2023-12-22T08:06:50;988.9;;;4.9;70.3
74431;BME280;62863;52.062;23.764;2023-12-22T08:11:35;989;;;4.8;70.5
74431;BME280;62863;52.062;23.764;2023-12-22T08:16:44;989;;;4.7;71.2
74431;BME280;62863;52.062;23.764;2023-12-22T08:21:56;989.1;;;4.6;71.9
74431;BME280;62863;52.062;23.764;2023-12-22T08:27:16;989.1;;;4.6;73.1
74431;BME280;62863;52.062;23.764;2023-12-22T08:32:06;989.2;;;4.6;73.5
74431;BME280;62863;52.062;23.764;2023-12-22T08:36:52;989.2;;;4.6;73.4
74431;BME280;62863;52.062;23.764;2023-12-22T08:41:42;989.3;;;4.6;73.9
74431;BME280;62863;52.062;23.764;2023-12-22T08:46:58;989.2;;;4.5;73.7
74431;BME280;62863;52.062;23.764;2023-12-22T08:52:16;989.2;;;4.6;73.8
74431;BME280;62863;52.062;23.764;2023-12-22T08:56:42;989.1;;;4.6;73
74431;BME280;62863;52.062;23.764;2023-12-22T09:01:34;989.1;;;4.6;72.8
74431;BME280;62863;52.062;23.764;2023-12-22T09:06:34;989;;;4.8;72.7
74431;BME280;62863;52.062;23.764;2023-12-22T09:11:54;988.9;;;5.3;71.5
74431;BME280;62863;52.062;23.764;2023-12-22T09:17:18;988.9;;;5.7;70.3
74431;BME280;62863;52.062;23.764;2023-12-22T09:21:36;988.8;;;6.1;68.6
74431;BME280;62863;52.062;23.764;2023-12-22T09:26:34;988.8;;;6.1;67.5
74431;BME280;62863;52.062;23.764;2023-12-22T09:32:06;988.8;;;6;67.1
74431;BME280;62863;52.062;23.764;2023-12-22T09:37:18;988.8;;;5.8;66.7
74431;BME280;62863;52.062;23.764;2023-12-22T09:42:16;989;;;5.6;66.2
74431;BME280;62863;52.062;23.764;2023-12-22T09:46:42;988.9;;;5.4;65.8
74431;BME280;62863;52.062;23.764;2023-12-22T09:51:40;989;;;5.3;65.6
74431;BME280;62863;52.062;23.764;2023-12-22T09:56:34;988.9;;;5.3;65.5
74431;BME280;62863;52.062;23.764;2023-12-22T10:01:42;988.9;;;5.3;64.6
74431;BME280;62863;52.062;23.764;2023-12-22T10:07:18;988.8;;;5.4;64.1
74431;BME280;62863;52.062;23.764;2023-12-22T10:11:56;988.8;;;5.4;63.4
74431;BME280;62863;52.062;23.764;2023-12-22T10:16:34;988.9;;;5.4;63.3
74431;BME280;62863;52.062;23.764;2023-12-22T10:22:08;988.8;;;5.4;63.1
74431;BME280;62863;52.062;23.764;2023-12-22T10:27:04;988.8;;;5.3;62.9
74431;BME280;62863;52.062;23.764;2023-12-22T10:32:18;988.8;;;5.2;62.4
74431;BME280;62863;52.062;23.764;2023-12-22T10:36:42;988.8;;;5.4;61.7
74431;BME280;62863;52.062;23.764;2023-12-22T10:41:58;988.8;;;5.6;61.5
74431;BME280;62863;52.062;23.764;2023-12-22T10:46:50;988.8;;;5.7;60.4
74431;BME280;62863;52.062;23.764;2023-12-22T10:51:46;988.9;;;5.8;59.8
74431;BME280;62863;52.062;23.764;2023-12-22T10:57:18;988.8;;;5.8;59.6
74431;BME280;62863;52.062;23.764;2023-12-22T11:01:42;988.9;;;5.6;60.8
74431;BME280;62863;52.062;23.764;2023-12-22T11:06:52;988.8;;;5.9;59.4
74431;BME280;62863;52.062;23.764;2023-12-22T11:12:08;988.7;;;5.8;58.9
74431;BME280;62863;52.062;23.764;2023-12-22T11:16:58;988.8;;;5.5;59.8
74431;BME280;62863;52.062;23.764;2023-12-22T11:22:18;988.8;;;5.7;59.8
74431;BME280;62863;52.062;23.764;2023-12-22T11:26:34;988.6;;;6.1;58.4
74431;BME280;62863;52.062;23.764;2023-12-22T11:31:42;988.6;;;6.1;58.1
74431;BME280;62863;52.062;23.764;2023-12-22T11:36:52;988.6;;;6.1;57.8
74431;BME280;62863;52.062;23.764;2023-12-22T11:41:42;988.6;;;6.1;57.4
74431;BME280;62863;52.062;23.764;2023-12-22T11:47:21;988.6;;;6.2;56.5
74431;BME280;62863;52.062;23.764;2023-12-22T11:52:08;988.6;;;6.2;56.2
74431;BME280;62863;52.062;23.764;2023-12-22T11:56:34;988.6;;;6;55.7
74431;BME280;62863;52.062;23.764;2023-12-22T12:01:58;988.5;;;5.7;56.6
74431;BME280;62863;52.062;23.764;2023-12-22T12:07:36;988.4;;;5.6;57.3
74431;BME280;62863;52.062;23.764;2023-12-22T12:12:18;988.4;;;5.7;57.1
74431;BME280;62863;52.062;23.764;2023-12-22T12:16:35;988.2;;;5.7;57.2
74431;BME280;62863;52.062;23.764;2023-12-22T12:21:34;988.1;;;5.6;57.4
74431;BME280;62863;52.062;23.764;2023-12-22T12:26:34;988.1;;;5.4;57.6
74431;BME280;62863;52.062;23.764;2023-12-22T12:32:14;988;;;5.3;57.8
74431;BME280;62863;52.062;23.764;2023-12-22T12:37:10;987.9;;;5.3;58
74431;BME280;62863;52.062;23.764;2023-12-22T12:42:06;987.6;;;5.3;57.5
74431;BME280;62863;52.062;23.764;2023-12-22T12:46:42;987.5;;;5.3;57.7
74431;BME280;62863;52.062;23.764;2023-12-22T12:52:11;987.5;;;5.3;57.9
74431;BME280;62863;52.062;23.764;2023-12-22T12:57:04;987.4;;;5.1;58.1
74431;BME280;62863;52.062;23.764;2023-12-22T13:02:18;987.5;;;5;58.2
74431;BME280;62863;52.062;23.764;2023-12-22T13:06:43;988.5;;;4.7;61
74431;BME280;62863;52.062;23.764;2023-12-22T13:12:00;988.7;;;3.7;64.6
74431;BME280;62863;52.062;23.764;2023-12-22T13:17:13;988.8;;;3.1;66.4
74431;BME280;62863;52.062;23.764;2023-12-22T13:21:34;988.7;;;2.7;67.6
74431;BME280;62863;52.062;23.764;2023-12-22T13:26:40;988.6;;;2.5;68.7
74431;BME280;62863;52.062;23.764;2023-12-22T13:31:36;988.6;;;2.2;69.7
74431;BME280;62863;52.062;23.764;2023-12-22T13:36:34;988.3;;;2;70.5
74431;BME280;62863;52.062;23.764;2023-12-22T13:42:18;988.3;;;2;70.9
74431;BME280;62863;52.062;23.764;2023-12-22T13:47:04;988.3;;;1.9;71
74431;BME280;62863;52.062;23.764;2023-12-22T13:52:24;988.4;;;2;71.1
74431;BME280;62863;52.062;23.764;2023-12-22T13:56:34;988.3;;;2.1;71.5
74431;BME280;62863;52.062;23.764;2023-12-22T14:01:42;988.3;;;2.3;71.3
74431;BME280;62863;52.062;23.764;2023-12-22T14:07:18;988.3;;;2.1;71.4
74431;BME280;62863;52.062;23.764;2023-12-22T14:11:34;988.3;;;1.9;71.8
74431;BME280;62863;52.062;23.764;2023-12-22T14:17:16;988.3;;;1.8;71.9
74431;BME280;62863;52.062;23.764;2023-12-22T14:22:08;988.4;;;1.7;72.3
74431;BME280;62863;52.062;23.764;2023-12-22T14:26:57;988.3;;;1.6;72.4
74431;BME280;62863;52.062;23.764;2023-12-22T14:32:16;988.3;;;1.6;72.4
74431;BME280;62863;52.062;23.764;2023-12-22T14:36:58;988.3;;;1.6;72.4
74431;BME280;62863;52.062;23.764;2023-12-22T14:42:14;988.2;;;1.6;72.3
74431;BME280;62863;52.062;23.764;2023-12-22T14:46:37;988.2;;;1.4;72.8
74431;BME280;62863;52.062;23.764;2023-12-22T14:51:50;988.1;;;1.3;73.6
74431;BME280;62863;52.062;23.764;2023-12-22T14:57:16;988.1;;;1.3;73.9
74431;BME280;62863;52.062;23.764;2023-12-22T15:01:42;988.1;;;1.3;74
74431;BME280;62863;52.062;23.764;2023-12-22T15:07:16;988.1;;;1.2;73.8
74431;BME280;62863;52.062;23.764;2023-12-22T15:11:40;988.1;;;1.3;73.9
74431;BME280;62863;52.062;23.764;2023-12-22T15:16:40;988.1;;;1.4;73.7
74431;BME280;62863;52.062;23.764;2023-12-22T15:22:18;988;;;1.5;73.3
74431;BME280;62863;52.062;23.764;2023-12-22T15:27:04;987.8;;;1.6;73.5
74431;BME280;62863;52.062;23.764;2023-12-22T15:32:18;987.9;;;1.6;73.6
74431;BME280;62863;52.062;23.764;2023-12-22T15:36:42;987.7;;;1.7;73.5
74431;BME280;62863;52.062;23.764;2023-12-22T15:41:50;987.6;;;1.6;73.3
74431;BME280;62863;52.062;23.764;2023-12-22T15:47:04;987.7;;;1.7;73.4
74431;BME280;62863;52.062;23.764;2023-12-22T15:51:34;987.7;;;1.8;73.6
74431;BME280;62863;52.062;23.764;2023-12-22T15:57:16;987.6;;;1.9;73.5
74431;BME280;62863;52.062;23.764;2023-12-22T16:02:06;987.5;;;1.9;73.7
74431;BME280;62863;52.062;23.764;2023-12-22T16:06:34;987.4;;;1.9;74.2
74431;BME280;62863;52.062;23.764;2023-12-22T16:12:14;987.2;;;1.8;74.7
74431;BME280;62863;52.062;23.764;2023-12-22T16:16:58;987.1;;;1.8;75
74431;BME280;62863;52.062;23.764;2023-12-22T16:22:14;987;;;1.8;75.3
74431;BME280;62863;52.062;23.764;2023-12-22T16:26:42;986.9;;;1.7;76.1
74431;BME280;62863;52.062;23.764;2023-12-22T16:31:34;986.9;;;1.7;76.7
74431;BME280;62863;52.062;23.764;2023-12-22T16:37:16;986.9;;;1.7;76.7
74431;BME280;62863;52.062;23.764;2023-12-22T16:41:42;986.8;;;1.7;76.5
74431;BME280;62863;52.062;23.764;2023-12-22T16:47:14;986.8;;;1.7;76.5
74431;BME280;62863;52.062;23.764;2023-12-22T16:52:04;986.7;;;1.7;76.8
74431;BME280;62863;52.062;23.764;2023-12-22T16:56:52;986.7;;;1.7;76.9
74431;BME280;62863;52.062;23.764;2023-12-22T17:02:18;986.7;;;1.7;77.3
74431;BME280;62863;52.062;23.764;2023-12-22T17:07:06;986.7;;;1.7;77.4
74431;BME280;62863;52.062;23.764;2023-12-22T17:11:42;986.6;;;1.7;77.4
74431;BME280;62863;52.062;23.764;2023-12-22T17:16:34;986.6;;;1.7;77.7
74431;BME280;62863;52.062;23.764;2023-12-22T17:21:34;986.7;;;1.7;78
74431;BME280;62863;52.062;23.764;2023-12-22T17:27:10;986.7;;;1.7;78.4
74431;BME280;62863;52.062;23.764;2023-12-22T17:32:14;986.7;;;1.7;78.5
74431;BME280;62863;52.062;23.764;2023-12-22T17:36:34;986.7;;;1.8;78.5
74431;BME280;62863;52.062;23.764;2023-12-22T17:42:00;986.7;;;1.8;78.4
74431;BME280;62863;52.062;23.764;2023-12-22T17:47:08;986.7;;;1.8;78.2
74431;BME280;62863;52.062;23.764;2023-12-22T17:51:50;986.6;;;1.7;78.2
74431;BME280;62863;52.062;23.764;2023-12-22T17:57:18;986.7;;;1.7;78.4
74431;BME280;62863;52.062;23.764;2023-12-22T18:01:34;986.7;;;1.7;78.4
74431;BME280;62863;52.062;23.764;2023-12-22T18:06:34;986.8;;;1.7;78.5
74431;BME280;62863;52.062;23.764;2023-12-22T18:11:38;986.8;;;1.7;78.9
74431;BME280;62863;52.062;23.764;2023-12-22T18:17:06;986.8;;;1.7;79.1
74431;BME280;62863;52.062;23.764;2023-12-22T18:21:52;986.7;;;1.7;79.2
74431;BME280;62863;52.062;23.764;2023-12-22T18:26:32;986.8;;;1.8;79.2
74431;BME280;62863;52.062;23.764;2023-12-22T18:32:02;986.9;;;1.8;79.3
74431;BME280;62863;52.062;23.764;2023-12-22T18:36:34;986.8;;;1.8;79.3
74431;BME280;62863;52.062;23.764;2023-12-22T18:41:56;986.9;;;1.8;78.6
74431;BME280;62863;52.062;23.764;2023-12-22T18:47:16;986.9;;;1.8;78.6
74431;BME280;62863;52.062;23.764;2023-12-22T18:51:54;986.9;;;1.8;78.7
74431;BME280;62863;52.062;23.764;2023-12-22T18:56:34;986.9;;;1.8;78.5
74431;BME280;62863;52.062;23.764;2023-12-22T19:01:46;986.9;;;1.8;78.7
74431;BME280;62863;52.062;23.764;2023-12-22T19:06:56;986.9;;;1.8;78.8
74431;BME280;62863;52.062;23.764;2023-12-22T19:12:14;986.9;;;1.8;79.1
74431;BME280;62863;52.062;23.764;2023-12-22T19:16:58;986.9;;;1.8;79.2
74431;BME280;62863;52.062;23.764;2023-12-22T19:22:00;987;;;1.8;79
74431;BME280;62863;52.062;23.764;2023-12-22T19:26:34;987;;;1.8;78.9
74431;BME280;62863;52.062;23.764;2023-12-22T19:31:58;987;;;1.8;78.8
74431;BME280;62863;52.062;23.764;2023-12-22T19:37:17;987.1;;;1.8;78.7
74431;BME280;62863;52.062;23.764;2023-12-22T19:41:42;987.1;;;1.8;78.5
74431;BME280;62863;52.062;23.764;2023-12-22T19:46:34;987.1;;;1.8;78.3
74431;BME280;62863;52.062;23.764;2023-12-22T19:51:34;987.2;;;1.9;78.2
74431;BME280;62863;52.062;23.764;2023-12-22T19:57:06;987.2;;;1.8;78.1
74431;BME280;62863;52.062;23.764;2023-12-22T20:02:04;987.3;;;1.9;78.1
74431;BME280;62863;52.062;23.764;2023-12-22T20:06:50;987.2;;;1.8;78.1
74431;BME280;62863;52.062;23.764;2023-12-22T20:11:58;987.3;;;1.8;78
74431;BME280;62863;52.062;23.764;2023-12-22T20:16:34;987.4;;;1.8;77.8
74431;BME280;62863;52.062;23.764;2023-12-22T20:21:42;987.4;;;1.8;77.6
74431;BME280;62863;52.062;23.764;2023-12-22T20:27:14;987.4;;;1.8;77.3
74431;BME280;62863;52.062;23.764;2023-12-22T20:31:48;987.5;;;1.8;77.4
74431;BME280;62863;52.062;23.764;2023-12-22T20:36:42;987.5;;;1.9;77.3
74431;BME280;62863;52.062;23.764;2023-12-22T20:41:58;987.5;;;1.8;77.2
74431;BME280;62863;52.062;23.764;2023-12-22T20:46:54;987.6;;;1.8;77.3
74431;BME280;62863;52.062;23.764;2023-12-22T20:52:12;987.6;;;1.8;77.2
74431;BME280;62863;52.062;23.764;2023-12-22T20:56:56;987.7;;;1.8;76.8
74431;BME280;62863;52.062;23.764;2023-12-22T21:01:44;987.7;;;1.8;76.7
74431;BME280;62863;52.062;23.764;2023-12-22T21:06:34;987.7;;;1.8;76.7
74431;BME280;62863;52.062;23.764;2023-12-22T21:11:56;987.7;;;1.8;76.6
74431;BME280;62863;52.062;23.764;2023-12-22T21:17:16;987.8;;;1.8;76.7
74431;BME280;62863;52.062;23.764;2023-12-22T21:21:34;987.8;;;1.8;76.7
74431;BME280;62863;52.062;23.764;2023-12-22T21:26:50;987.8;;;1.8;76.5
74431;BME280;62863;52.062;23.764;2023-12-22T21:31:34;987.9;;;1.8;76.1
74431;BME280;62863;52.062;23.764;2023-12-22T21:36:36;987.9;;;1.8;75.7
74431;BME280;62863;52.062;23.764;2023-12-22T21:42:12;988;;;1.9;75.5
74431;BME280;62863;52.062;23.764;2023-12-22T21:46:41;988;;;1.8;75.1
74431;BME280;62863;52.062;23.764;2023-12-22T21:51:44;988;;;1.8;75
74431;BME280;62863;52.062;23.764;2023-12-22T21:56:34;988.1;;;1.8;74.9
74431;BME280;62863;52.062;23.764;2023-12-22T22:01:48;988.1;;;1.8;74.6
74431;BME280;62863;52.062;23.764;2023-12-22T22:07:16;988.1;;;1.7;74.1
74431;BME280;62863;52.062;23.764;2023-12-22T22:11:42;988.1;;;1.8;74
74431;BME280;62863;52.062;23.764;2023-12-22T22:16:40;988.2;;;1.7;73.9
74431;BME280;62863;52.062;23.764;2023-12-22T22:21:56;988.2;;;1.7;74.1
74431;BME280;62863;52.062;23.764;2023-12-22T22:27:04;988.3;;;1.7;73.8
74431;BME280;62863;52.062;23.764;2023-12-22T22:32:16;988.3;;;1.7;73.8
74431;BME280;62863;52.062;23.764;2023-12-22T22:36:34;988.3;;;1.7;73.8
74431;BME280;62863;52.062;23.764;2023-12-22T22:42:00;988.3;;;1.6;73.5
74431;BME280;62863;52.062;23.764;2023-12-22T22:47:06;988.5;;;1.7;73.2
74431;BME280;62863;52.062;23.764;2023-12-22T22:51:34;988.6;;;1.7;73
74431;BME280;62863;52.062;23.764;2023-12-22T22:57:14;988.6;;;1.7;72.6
74431;BME280;62863;52.062;23.764;2023-12-22T23:01:34;988.7;;;1.7;72.5
74431;BME280;62863;52.062;23.764;2023-12-22T23:06:34;988.7;;;1.7;72.3
74431;BME280;62863;52.062;23.764;2023-12-22T23:11:40;988.7;;;1.7;72.5
74431;BME280;62863;52.062;23.764;2023-12-22T23:16:50;988.8;;;1.7;72.3
74431;BME280;62863;52.062;23.764;2023-12-22T23:22:12;988.7;;;1.7;72.2
74431;BME280;62863;52.062;23.764;2023-12-22T23:27:06;988.7;;;1.7;72.4
74431;BME280;62863;52.062;23.764;2023-12-22T23:31:46;988.8;;;1.7;72
74431;BME280;62863;52.062;23.764;2023-12-22T23:36:48;988.9;;;1.7;72.1
74431;BME280;62863;52.062;23.764;2023-12-22T23:41:56;988.9;;;1.7;72
74431;BME280;62863;52.062;23.764;2023-12-22T23:47:14;989;;;1.6;71.7
74431;BME280;62863;52.062;23.764;2023-12-22T23:51:56;989;;;1.6;71.5
74431;BME280;62863;52.062;23.764;2023-12-22T23:56:34;989;;;1.5;71.6
